sensor_id;sensor_type;location;lat;lon;timestamp;temperature;humidity
21035;DHT22;10676;50.848;3.272;2023-05-10T00:01:56;13.40;99.90
21035;DHT22;10676;50.848;3.272;2023-05-10T00:04:22;13.30;99.90
21035;DHT22;10676;50.848;3.272;2023-05-10T00:06:47;13.30;99.90
21035;DHT22;10676;50.848;3.272;2023-05-10T00:09:13;13.30;99.90
21035;DHT22;10676;50.848;3.272;2023-05-10T00:11:39;13.30;99.90
21035;DHT22;10676;50.848;3.272;2023-05-10T00:14:05;13.30;99.90
21035;DHT22;10676;50.848;3.272;2023-05-10T00:16:30;13.40;99.90
21035;DHT22;10676;50.848;3.272;2023-05-10T00:18:56;13.40;99.90
21035;DHT22;10676;50.848;3.272;2023-05-10T00:21:22;13.50;99.90
21035;DHT22;10676;50.848;3.272;2023-05-10T00:23:47;13.50;99.90
21035;DHT22;10676;50.848;3.272;2023-05-10T00:26:13;13.50;99.90
21035;DHT22;10676;50.848;3.272;2023-05-10T00:28:39;13.60;99.90
21035;DHT22;10676;50.848;3.272;2023-05-10T00:31:04;13.60;99.90
21035;DHT22;10676;50.848;3.272;2023-05-10T00:33:30;13.60;99.90
21035;DHT22;10676;50.848;3.272;2023-05-10T00:35:56;13.60;99.90
21035;DHT22;10676;50.848;3.272;2023-05-10T00:38:21;13.60;99.90
21035;DHT22;10676;50.848;3.272;2023-05-10T00:40:47;13.70;99.90
21035;DHT22;10676;50.848;3.272;2023-05-10T00:43:13;13.70;99.90
21035;DHT22;10676;50.848;3.272;2023-05-10T00:45:40;13.70;99.90
21035;DHT22;10676;50.848;3.272;2023-05-10T00:48:06;13.70;99.90
21035;DHT22;10676;50.848;3.272;2023-05-10T00:50:33;13.70;99.90
21035;DHT22;10676;50.848;3.272;2023-05-10T00:52:59;13.70;99.90
21035;DHT22;10676;50.848;3.272;2023-05-10T00:55:26;13.70;99.90
21035;DHT22;10676;50.848;3.272;2023-05-10T00:57:53;13.80;99.90
21035;DHT22;10676;50.848;3.272;2023-05-10T01:00:19;13.80;99.90
21035;DHT22;10676;50.848;3.272;2023-05-10T01:02:46;13.80;99.90
21035;DHT22;10676;50.848;3.272;2023-05-10T01:05:12;13.80;99.90
21035;DHT22;10676;50.848;3.272;2023-05-10T01:07:38;13.80;99.90
21035;DHT22;10676;50.848;3.272;2023-05-10T01:10:06;13.80;99.90
21035;DHT22;10676;50.848;3.272;2023-05-10T01:12:33;13.80;99.90
21035;DHT22;10676;50.848;3.272;2023-05-10T01:15:00;13.80;99.90
21035;DHT22;10676;50.848;3.272;2023-05-10T01:17:27;13.80;99.90
21035;DHT22;10676;50.848;3.272;2023-05-10T01:19:53;13.80;99.90
21035;DHT22;10676;50.848;3.272;2023-05-10T01:22:37;13.80;99.90
21035;DHT22;10676;50.848;3.272;2023-05-10T01:33:43;14.00;99.90
21035;DHT22;10676;50.848;3.272;2023-05-10T01:38:53;14.00;99.90
21035;DHT22;10676;50.848;3.272;2023-05-10T01:44:39;14.00;99.90
21035;DHT22;10676;50.848;3.272;2023-05-10T01:47:20;14.00;99.90
21035;DHT22;10676;50.848;3.272;2023-05-10T01:49:51;14.00;99.90
21035;DHT22;10676;50.848;3.272;2023-05-10T01:52:19;14.00;99.90
21035;DHT22;10676;50.848;3.272;2023-05-10T01:54:53;14.10;99.90
21035;DHT22;10676;50.848;3.272;2023-05-10T01:57:22;14.10;99.90
21035;DHT22;10676;50.848;3.272;2023-05-10T01:59:52;14.10;99.90
21035;DHT22;10676;50.848;3.272;2023-05-10T02:02:20;14.00;99.90
21035;DHT22;10676;50.848;3.272;2023-05-10T02:04:47;14.10;99.90
21035;DHT22;10676;50.848;3.272;2023-05-10T02:07:15;14.10;99.90
21035;DHT22;10676;50.848;3.272;2023-05-10T02:09:44;14.10;99.90
21035;DHT22;10676;50.848;3.272;2023-05-10T02:12:13;14.00;99.90
21035;DHT22;10676;50.848;3.272;2023-05-10T02:14:41;14.10;99.90
21035;DHT22;10676;50.848;3.272;2023-05-10T02:17:08;14.10;99.90
21035;DHT22;10676;50.848;3.272;2023-05-10T02:19:39;14.10;99.90
21035;DHT22;10676;50.848;3.272;2023-05-10T02:22:06;14.00;99.90
21035;DHT22;10676;50.848;3.272;2023-05-10T02:24:34;14.00;99.90
21035;DHT22;10676;50.848;3.272;2023-05-10T02:27:03;14.00;99.90
21035;DHT22;10676;50.848;3.272;2023-05-10T02:29:31;14.00;99.90
21035;DHT22;10676;50.848;3.272;2023-05-10T02:31:58;13.90;99.90
21035;DHT22;10676;50.848;3.272;2023-05-10T02:34:26;13.90;99.90
21035;DHT22;10676;50.848;3.272;2023-05-10T02:36:53;13.90;99.90
21035;DHT22;10676;50.848;3.272;2023-05-10T02:39:20;13.80;99.90
21035;DHT22;10676;50.848;3.272;2023-05-10T02:41:48;13.80;99.90
21035;DHT22;10676;50.848;3.272;2023-05-10T02:44:15;13.80;99.90
21035;DHT22;10676;50.848;3.272;2023-05-10T02:46:43;13.70;99.90
21035;DHT22;10676;50.848;3.272;2023-05-10T02:49:09;13.70;99.90
21035;DHT22;10676;50.848;3.272;2023-05-10T02:51:36;13.70;99.90
21035;DHT22;10676;50.848;3.272;2023-05-10T02:54:09;13.70;99.90
21035;DHT22;10676;50.848;3.272;2023-05-10T02:56:36;13.60;99.90
21035;DHT22;10676;50.848;3.272;2023-05-10T02:59:05;13.60;99.90
21035;DHT22;10676;50.848;3.272;2023-05-10T03:01:30;13.60;99.90
21035;DHT22;10676;50.848;3.272;2023-05-10T03:03:56;13.60;99.90
21035;DHT22;10676;50.848;3.272;2023-05-10T03:06:22;13.50;99.90
21035;DHT22;10676;50.848;3.272;2023-05-10T03:08:48;13.50;99.90
21035;DHT22;10676;50.848;3.272;2023-05-10T03:14:03;13.40;99.90
21035;DHT22;10676;50.848;3.272;2023-05-10T03:17:35;13.30;99.90
21035;DHT22;10676;50.848;3.272;2023-05-10T03:19:48;13.20;99.90
21035;DHT22;10676;50.848;3.272;2023-05-10T03:22:25;13.20;99.90
21035;DHT22;10676;50.848;3.272;2023-05-10T03:24:55;13.10;99.90
21035;DHT22;10676;50.848;3.272;2023-05-10T03:27:22;13.10;99.90
21035;DHT22;10676;50.848;3.272;2023-05-10T03:29:49;13.20;99.90
21035;DHT22;10676;50.848;3.272;2023-05-10T03:32:16;13.10;99.90
21035;DHT22;10676;50.848;3.272;2023-05-10T03:34:42;13.10;99.90
21035;DHT22;10676;50.848;3.272;2023-05-10T03:37:10;13.10;99.90
21035;DHT22;10676;50.848;3.272;2023-05-10T03:39:36;13.10;99.90
21035;DHT22;10676;50.848;3.272;2023-05-10T03:42:02;13.10;99.90
21035;DHT22;10676;50.848;3.272;2023-05-10T03:44:28;13.20;99.90
21035;DHT22;10676;50.848;3.272;2023-05-10T03:46:53;13.20;99.90
21035;DHT22;10676;50.848;3.272;2023-05-10T03:49:19;13.20;99.90
21035;DHT22;10676;50.848;3.272;2023-05-10T03:51:45;13.20;99.90
21035;DHT22;10676;50.848;3.272;2023-05-10T03:54:10;13.20;99.90
21035;DHT22;10676;50.848;3.272;2023-05-10T03:56:36;13.20;99.90
21035;DHT22;10676;50.848;3.272;2023-05-10T03:59:15;13.30;99.90
21035;DHT22;10676;50.848;3.272;2023-05-10T04:01:41;13.30;99.90
21035;DHT22;10676;50.848;3.272;2023-05-10T04:04:06;13.30;99.90
21035;DHT22;10676;50.848;3.272;2023-05-10T04:06:32;13.30;99.90
21035;DHT22;10676;50.848;3.272;2023-05-10T04:08:58;13.30;99.90
21035;DHT22;10676;50.848;3.272;2023-05-10T04:11:29;13.20;99.90
21035;DHT22;10676;50.848;3.272;2023-05-10T04:13:55;13.20;99.90
21035;DHT22;10676;50.848;3.272;2023-05-10T04:16:21;13.20;99.90
21035;DHT22;10676;50.848;3.272;2023-05-10T04:18:46;13.20;99.90
21035;DHT22;10676;50.848;3.272;2023-05-10T04:21:12;13.20;99.90
21035;DHT22;10676;50.848;3.272;2023-05-10T04:23:41;13.20;99.90
21035;DHT22;10676;50.848;3.272;2023-05-10T04:26:06;13.30;99.90
21035;DHT22;10676;50.848;3.272;2023-05-10T04:28:32;13.30;99.90
21035;DHT22;10676;50.848;3.272;2023-05-10T04:31:05;13.30;99.90
21035;DHT22;10676;50.848;3.272;2023-05-10T04:33:31;13.30;99.90
21035;DHT22;10676;50.848;3.272;2023-05-10T04:35:57;13.30;99.90
21035;DHT22;10676;50.848;3.272;2023-05-10T04:38:23;13.40;99.90
21035;DHT22;10676;50.848;3.272;2023-05-10T04:40:49;13.40;99.90
21035;DHT22;10676;50.848;3.272;2023-05-10T04:43:15;13.40;99.90
21035;DHT22;10676;50.848;3.272;2023-05-10T04:45:40;13.40;99.90
21035;DHT22;10676;50.848;3.272;2023-05-10T04:48:06;13.40;99.90
21035;DHT22;10676;50.848;3.272;2023-05-10T04:50:32;13.50;99.90
21035;DHT22;10676;50.848;3.272;2023-05-10T04:52:58;13.50;99.90
21035;DHT22;10676;50.848;3.272;2023-05-10T04:55:24;13.50;99.90
21035;DHT22;10676;50.848;3.272;2023-05-10T04:57:50;13.50;99.90
21035;DHT22;10676;50.848;3.272;2023-05-10T05:00:16;13.50;99.90
21035;DHT22;10676;50.848;3.272;2023-05-10T05:02:43;13.50;99.90
21035;DHT22;10676;50.848;3.272;2023-05-10T05:05:09;13.50;99.90
21035;DHT22;10676;50.848;3.272;2023-05-10T05:07:35;13.50;99.90
21035;DHT22;10676;50.848;3.272;2023-05-10T05:10:01;13.50;99.90
21035;DHT22;10676;50.848;3.272;2023-05-10T05:12:27;13.60;99.90
21035;DHT22;10676;50.848;3.272;2023-05-10T05:14:52;13.60;99.90
21035;DHT22;10676;50.848;3.272;2023-05-10T05:17:18;13.50;99.90
21035;DHT22;10676;50.848;3.272;2023-05-10T05:19:43;13.60;99.90
21035;DHT22;10676;50.848;3.272;2023-05-10T05:22:09;13.60;99.90
21035;DHT22;10676;50.848;3.272;2023-05-10T05:24:35;13.60;99.90
21035;DHT22;10676;50.848;3.272;2023-05-10T05:27:05;13.70;99.90
21035;DHT22;10676;50.848;3.272;2023-05-10T05:29:31;13.80;99.90
21035;DHT22;10676;50.848;3.272;2023-05-10T05:31:57;13.90;99.90
21035;DHT22;10676;50.848;3.272;2023-05-10T05:34:22;14.00;99.90
21035;DHT22;10676;50.848;3.272;2023-05-10T05:36:49;14.10;99.90
21035;DHT22;10676;50.848;3.272;2023-05-10T05:39:15;14.20;99.90
21035;DHT22;10676;50.848;3.272;2023-05-10T05:41:41;14.30;99.90
21035;DHT22;10676;50.848;3.272;2023-05-10T05:44:08;14.40;99.90
21035;DHT22;10676;50.848;3.272;2023-05-10T05:46:33;14.50;99.90
21035;DHT22;10676;50.848;3.272;2023-05-10T05:48:59;14.50;99.90
21035;DHT22;10676;50.848;3.272;2023-05-10T05:51:25;14.50;99.90
21035;DHT22;10676;50.848;3.272;2023-05-10T05:53:51;14.60;99.90
21035;DHT22;10676;50.848;3.272;2023-05-10T05:56:16;14.60;99.90
21035;DHT22;10676;50.848;3.272;2023-05-10T05:58:50;14.60;99.90
21035;DHT22;10676;50.848;3.272;2023-05-10T06:01:44;14.70;99.90
21035;DHT22;10676;50.848;3.272;2023-05-10T06:04:23;14.70;99.90
21035;DHT22;10676;50.848;3.272;2023-05-10T06:06:49;14.70;99.90
21035;DHT22;10676;50.848;3.272;2023-05-10T06:09:15;14.80;99.90
21035;DHT22;10676;50.848;3.272;2023-05-10T06:11:45;14.80;99.90
21035;DHT22;10676;50.848;3.272;2023-05-10T06:14:11;14.80;99.90
21035;DHT22;10676;50.848;3.272;2023-05-10T06:16:37;14.80;99.90
21035;DHT22;10676;50.848;3.272;2023-05-10T06:19:03;14.80;99.90
21035;DHT22;10676;50.848;3.272;2023-05-10T06:21:28;14.80;99.90
21035;DHT22;10676;50.848;3.272;2023-05-10T06:23:55;14.90;99.90
21035;DHT22;10676;50.848;3.272;2023-05-10T06:26:21;15.00;99.90
21035;DHT22;10676;50.848;3.272;2023-05-10T06:28:47;15.10;99.90
21035;DHT22;10676;50.848;3.272;2023-05-10T06:31:12;15.30;99.90
21035;DHT22;10676;50.848;3.272;2023-05-10T06:33:38;15.40;99.90
21035;DHT22;10676;50.848;3.272;2023-05-10T06:36:05;15.50;99.90
21035;DHT22;10676;50.848;3.272;2023-05-10T06:38:31;15.60;99.90
21035;DHT22;10676;50.848;3.272;2023-05-10T06:40:56;15.60;99.90
21035;DHT22;10676;50.848;3.272;2023-05-10T06:43:22;15.70;99.90
21035;DHT22;10676;50.848;3.272;2023-05-10T06:45:48;15.70;99.90
21035;DHT22;10676;50.848;3.272;2023-05-10T06:48:14;15.70;99.90
21035;DHT22;10676;50.848;3.272;2023-05-10T06:50:39;15.80;99.90
21035;DHT22;10676;50.848;3.272;2023-05-10T06:53:05;16.10;99.90
21035;DHT22;10676;50.848;3.272;2023-05-10T06:55:31;16.60;99.90
21035;DHT22;10676;50.848;3.272;2023-05-10T06:57:57;16.90;99.90
21035;DHT22;10676;50.848;3.272;2023-05-10T07:00:22;17.20;99.90
21035;DHT22;10676;50.848;3.272;2023-05-10T07:02:48;17.40;99.90
21035;DHT22;10676;50.848;3.272;2023-05-10T07:05:14;17.70;99.90
21035;DHT22;10676;50.848;3.272;2023-05-10T07:07:40;17.90;99.90
21035;DHT22;10676;50.848;3.272;2023-05-10T07:10:06;18.20;99.90
21035;DHT22;10676;50.848;3.272;2023-05-10T07:12:32;18.50;99.90
21035;DHT22;10676;50.848;3.272;2023-05-10T07:14:58;18.90;99.90
21035;DHT22;10676;50.848;3.272;2023-05-10T07:17:24;19.20;99.90
21035;DHT22;10676;50.848;3.272;2023-05-10T07:19:50;19.40;99.90
21035;DHT22;10676;50.848;3.272;2023-05-10T07:22:16;19.40;99.90
21035;DHT22;10676;50.848;3.272;2023-05-10T07:24:42;19.30;99.90
21035;DHT22;10676;50.848;3.272;2023-05-10T07:27:08;19.20;99.90
21035;DHT22;10676;50.848;3.272;2023-05-10T07:29:34;19.00;99.90
21035;DHT22;10676;50.848;3.272;2023-05-10T07:32:00;18.80;99.90
21035;DHT22;10676;50.848;3.272;2023-05-10T07:34:26;18.70;99.90
21035;DHT22;10676;50.848;3.272;2023-05-10T07:36:52;18.60;99.90
21035;DHT22;10676;50.848;3.272;2023-05-10T07:39:18;18.30;99.90
21035;DHT22;10676;50.848;3.272;2023-05-10T07:41:45;18.00;99.90
21035;DHT22;10676;50.848;3.272;2023-05-10T07:44:11;17.90;99.90
21035;DHT22;10676;50.848;3.272;2023-05-10T07:46:37;17.80;99.90
21035;DHT22;10676;50.848;3.272;2023-05-10T07:49:02;17.60;99.90
21035;DHT22;10676;50.848;3.272;2023-05-10T07:51:28;17.50;99.90
21035;DHT22;10676;50.848;3.272;2023-05-10T07:53:54;17.40;99.90
21035;DHT22;10676;50.848;3.272;2023-05-10T07:56:31;17.30;99.90
21035;DHT22;10676;50.848;3.272;2023-05-10T07:58:58;17.30;99.90
21035;DHT22;10676;50.848;3.272;2023-05-10T08:01:25;17.40;99.90
21035;DHT22;10676;50.848;3.272;2023-05-10T08:03:51;17.30;99.90
21035;DHT22;10676;50.848;3.272;2023-05-10T08:06:19;17.20;99.90
21035;DHT22;10676;50.848;3.272;2023-05-10T08:08:48;17.10;99.90
21035;DHT22;10676;50.848;3.272;2023-05-10T08:11:22;16.90;99.90
21035;DHT22;10676;50.848;3.272;2023-05-10T08:13:48;16.80;99.90
21035;DHT22;10676;50.848;3.272;2023-05-10T08:16:15;16.60;99.90
21035;DHT22;10676;50.848;3.272;2023-05-10T08:18:42;16.60;99.90
21035;DHT22;10676;50.848;3.272;2023-05-10T08:21:08;16.50;99.90
21035;DHT22;10676;50.848;3.272;2023-05-10T08:23:36;16.50;99.90
21035;DHT22;10676;50.848;3.272;2023-05-10T08:26:02;16.50;99.90
21035;DHT22;10676;50.848;3.272;2023-05-10T08:28:27;16.50;99.90
21035;DHT22;10676;50.848;3.272;2023-05-10T08:30:53;16.50;99.90
21035;DHT22;10676;50.848;3.272;2023-05-10T08:33:19;16.50;99.90
21035;DHT22;10676;50.848;3.272;2023-05-10T08:35:44;16.50;99.90
21035;DHT22;10676;50.848;3.272;2023-05-10T08:38:10;16.60;99.90
21035;DHT22;10676;50.848;3.272;2023-05-10T08:40:43;16.70;99.90
21035;DHT22;10676;50.848;3.272;2023-05-10T08:43:11;16.90;99.90
21035;DHT22;10676;50.848;3.272;2023-05-10T08:45:42;17.30;99.90
21035;DHT22;10676;50.848;3.272;2023-05-10T08:48:09;17.80;99.90
21035;DHT22;10676;50.848;3.272;2023-05-10T08:50:41;18.30;99.90
21035;DHT22;10676;50.848;3.272;2023-05-10T08:53:12;18.60;99.90
21035;DHT22;10676;50.848;3.272;2023-05-10T08:55:39;18.70;99.90
21035;DHT22;10676;50.848;3.272;2023-05-10T08:58:06;18.80;99.90
21035;DHT22;10676;50.848;3.272;2023-05-10T09:00:32;18.80;99.90
21035;DHT22;10676;50.848;3.272;2023-05-10T09:02:59;18.70;99.90
21035;DHT22;10676;50.848;3.272;2023-05-10T09:05:25;18.60;99.90
21035;DHT22;10676;50.848;3.272;2023-05-10T09:07:51;18.50;99.90
21035;DHT22;10676;50.848;3.272;2023-05-10T09:10:19;18.40;99.90
21035;DHT22;10676;50.848;3.272;2023-05-10T09:12:45;18.30;99.90
21035;DHT22;10676;50.848;3.272;2023-05-10T09:15:11;18.20;99.90
21035;DHT22;10676;50.848;3.272;2023-05-10T09:17:39;18.10;99.90
21035;DHT22;10676;50.848;3.272;2023-05-10T09:20:06;18.00;99.90
21035;DHT22;10676;50.848;3.272;2023-05-10T09:22:32;17.90;99.90
21035;DHT22;10676;50.848;3.272;2023-05-10T09:27:32;17.80;99.90
21035;DHT22;10676;50.848;3.272;2023-05-10T09:29:57;17.60;99.90
21035;DHT22;10676;50.848;3.272;2023-05-10T09:32:39;17.40;99.90
21035;DHT22;10676;50.848;3.272;2023-05-10T09:35:14;17.20;99.90
21035;DHT22;10676;50.848;3.272;2023-05-10T09:37:41;17.00;99.90
21035;DHT22;10676;50.848;3.272;2023-05-10T09:40:10;16.90;99.90
21035;DHT22;10676;50.848;3.272;2023-05-10T09:42:36;16.80;99.90
21035;DHT22;10676;50.848;3.272;2023-05-10T09:45:03;16.80;99.90
21035;DHT22;10676;50.848;3.272;2023-05-10T09:47:31;16.70;99.90
21035;DHT22;10676;50.848;3.272;2023-05-10T09:49:57;16.70;99.90
21035;DHT22;10676;50.848;3.272;2023-05-10T09:52:28;16.70;99.90
21035;DHT22;10676;50.848;3.272;2023-05-10T09:54:54;16.80;99.90
21035;DHT22;10676;50.848;3.272;2023-05-10T09:57:24;16.90;99.90
21035;DHT22;10676;50.848;3.272;2023-05-10T09:59:54;16.90;99.90
21035;DHT22;10676;50.848;3.272;2023-05-10T10:02:20;16.90;99.90
21035;DHT22;10676;50.848;3.272;2023-05-10T10:04:49;16.80;99.90
21035;DHT22;10676;50.848;3.272;2023-05-10T10:07:22;16.80;99.90
21035;DHT22;10676;50.848;3.272;2023-05-10T10:09:49;16.80;99.90
21035;DHT22;10676;50.848;3.272;2023-05-10T10:12:15;16.80;99.90
21035;DHT22;10676;50.848;3.272;2023-05-10T10:14:41;16.80;99.90
21035;DHT22;10676;50.848;3.272;2023-05-10T10:17:07;16.80;99.90
21035;DHT22;10676;50.848;3.272;2023-05-10T10:19:34;16.80;99.90
21035;DHT22;10676;50.848;3.272;2023-05-10T10:22:03;16.80;99.90
21035;DHT22;10676;50.848;3.272;2023-05-10T10:24:29;16.70;99.90
21035;DHT22;10676;50.848;3.272;2023-05-10T10:26:59;16.70;99.90
21035;DHT22;10676;50.848;3.272;2023-05-10T10:29:32;16.60;99.90
21035;DHT22;10676;50.848;3.272;2023-05-10T10:32:28;16.70;99.90
21035;DHT22;10676;50.848;3.272;2023-05-10T10:34:55;16.90;99.90
21035;DHT22;10676;50.848;3.272;2023-05-10T10:37:21;17.30;99.90
21035;DHT22;10676;50.848;3.272;2023-05-10T10:39:50;17.80;99.90
21035;DHT22;10676;50.848;3.272;2023-05-10T10:42:45;18.40;99.90
21035;DHT22;10676;50.848;3.272;2023-05-10T10:45:15;19.10;99.90
21035;DHT22;10676;50.848;3.272;2023-05-10T10:47:41;19.80;99.90
21035;DHT22;10676;50.848;3.272;2023-05-10T10:50:08;20.50;99.90
21035;DHT22;10676;50.848;3.272;2023-05-10T10:52:39;21.30;99.90
21035;DHT22;10676;50.848;3.272;2023-05-10T10:55:18;22.10;99.90
21035;DHT22;10676;50.848;3.272;2023-05-10T10:57:49;22.80;99.90
21035;DHT22;10676;50.848;3.272;2023-05-10T11:02:51;23.60;99.90
21035;DHT22;10676;50.848;3.272;2023-05-10T11:05:35;23.70;99.90
21035;DHT22;10676;50.848;3.272;2023-05-10T11:08:27;23.70;99.90
21035;DHT22;10676;50.848;3.272;2023-05-10T11:13:47;23.50;99.90
21035;DHT22;10676;50.848;3.272;2023-05-10T11:16:21;23.80;99.90
21035;DHT22;10676;50.848;3.272;2023-05-10T11:21:28;24.70;99.90
21035;DHT22;10676;50.848;3.272;2023-05-10T11:23:55;25.30;99.90
21035;DHT22;10676;50.848;3.272;2023-05-10T11:26:24;25.90;99.90
21035;DHT22;10676;50.848;3.272;2023-05-10T11:28:53;26.50;99.90
21035;DHT22;10676;50.848;3.272;2023-05-10T11:31:21;27.00;99.90
21035;DHT22;10676;50.848;3.272;2023-05-10T11:33:51;27.40;99.90
21035;DHT22;10676;50.848;3.272;2023-05-10T11:36:19;27.30;99.90
21035;DHT22;10676;50.848;3.272;2023-05-10T11:38:45;27.20;99.90
21035;DHT22;10676;50.848;3.272;2023-05-10T11:41:12;26.80;99.90
21035;DHT22;10676;50.848;3.272;2023-05-10T11:43:42;26.40;99.90
21035;DHT22;10676;50.848;3.272;2023-05-10T11:46:09;25.80;99.90
21035;DHT22;10676;50.848;3.272;2023-05-10T11:48:36;25.20;99.90
21035;DHT22;10676;50.848;3.272;2023-05-10T11:51:02;24.70;99.90
21035;DHT22;10676;50.848;3.272;2023-05-10T11:53:31;24.20;99.90
21035;DHT22;10676;50.848;3.272;2023-05-10T11:58:31;23.50;99.90
21035;DHT22;10676;50.848;3.272;2023-05-10T12:00:58;23.20;99.90
21035;DHT22;10676;50.848;3.272;2023-05-10T12:03:24;22.90;99.90
21035;DHT22;10676;50.848;3.272;2023-05-10T12:05:50;22.50;99.90
21035;DHT22;10676;50.848;3.272;2023-05-10T12:08:21;22.10;99.90
21035;DHT22;10676;50.848;3.272;2023-05-10T12:10:46;21.80;99.90
21035;DHT22;10676;50.848;3.272;2023-05-10T12:13:13;21.50;99.90
21035;DHT22;10676;50.848;3.272;2023-05-10T12:15:42;21.30;99.90
21035;DHT22;10676;50.848;3.272;2023-05-10T12:18:09;21.20;99.90
21035;DHT22;10676;50.848;3.272;2023-05-10T12:20:38;21.10;99.90
21035;DHT22;10676;50.848;3.272;2023-05-10T12:23:04;21.10;99.90
21035;DHT22;10676;50.848;3.272;2023-05-10T12:25:35;21.20;99.90
21035;DHT22;10676;50.848;3.272;2023-05-10T12:28:04;21.30;99.90
21035;DHT22;10676;50.848;3.272;2023-05-10T12:30:32;21.40;99.90
21035;DHT22;10676;50.848;3.272;2023-05-10T12:33:03;21.60;99.90
21035;DHT22;10676;50.848;3.272;2023-05-10T12:35:43;21.80;99.90
21035;DHT22;10676;50.848;3.272;2023-05-10T12:38:25;22.10;99.90
21035;DHT22;10676;50.848;3.272;2023-05-10T12:41:04;22.80;99.90
21035;DHT22;10676;50.848;3.272;2023-05-10T12:43:31;23.20;99.90
21035;DHT22;10676;50.848;3.272;2023-05-10T12:45:57;23.80;99.90
21035;DHT22;10676;50.848;3.272;2023-05-10T12:48:22;24.30;98.20
21035;DHT22;10676;50.848;3.272;2023-05-10T12:50:48;24.70;97.60
21035;DHT22;10676;50.848;3.272;2023-05-10T12:53:15;24.90;95.30
21035;DHT22;10676;50.848;3.272;2023-05-10T12:55:42;25.20;96.30
21035;DHT22;10676;50.848;3.272;2023-05-10T12:58:07;25.60;95.10
21035;DHT22;10676;50.848;3.272;2023-05-10T13:00:33;26.20;92.90
21035;DHT22;10676;50.848;3.272;2023-05-10T13:02:59;26.50;90.80
21035;DHT22;10676;50.848;3.272;2023-05-10T13:05:26;26.80;90.60
21035;DHT22;10676;50.848;3.272;2023-05-10T13:07:51;26.90;87.60
21035;DHT22;10676;50.848;3.272;2023-05-10T13:10:17;26.80;87.50
21035;DHT22;10676;50.848;3.272;2023-05-10T13:12:43;26.70;89.00
21035;DHT22;10676;50.848;3.272;2023-05-10T13:15:09;26.70;89.40
21035;DHT22;10676;50.848;3.272;2023-05-10T13:17:34;26.70;89.20
21035;DHT22;10676;50.848;3.272;2023-05-10T13:20:00;26.70;87.40
21035;DHT22;10676;50.848;3.272;2023-05-10T13:22:26;26.50;86.90
21035;DHT22;10676;50.848;3.272;2023-05-10T13:24:51;26.30;88.00
21035;DHT22;10676;50.848;3.272;2023-05-10T13:27:17;26.20;88.10
21035;DHT22;10676;50.848;3.272;2023-05-10T13:29:43;26.00;88.00
21035;DHT22;10676;50.848;3.272;2023-05-10T13:32:08;25.90;90.00
21035;DHT22;10676;50.848;3.272;2023-05-10T13:34:34;25.80;87.70
21035;DHT22;10676;50.848;3.272;2023-05-10T13:37:01;25.80;87.30
21035;DHT22;10676;50.848;3.272;2023-05-10T13:39:27;25.60;86.10
21035;DHT22;10676;50.848;3.272;2023-05-10T13:41:52;25.70;85.20
21035;DHT22;10676;50.848;3.272;2023-05-10T13:44:20;25.80;82.90
21035;DHT22;10676;50.848;3.272;2023-05-10T13:46:46;25.60;85.70
21035;DHT22;10676;50.848;3.272;2023-05-10T13:49:11;25.60;85.00
21035;DHT22;10676;50.848;3.272;2023-05-10T13:51:37;25.70;84.90
21035;DHT22;10676;50.848;3.272;2023-05-10T13:54:03;26.00;83.70
21035;DHT22;10676;50.848;3.272;2023-05-10T13:56:29;26.30;83.70
21035;DHT22;10676;50.848;3.272;2023-05-10T13:58:56;26.70;81.90
21035;DHT22;10676;50.848;3.272;2023-05-10T14:01:22;27.00;81.80
21035;DHT22;10676;50.848;3.272;2023-05-10T14:03:52;27.30;78.20
21035;DHT22;10676;50.848;3.272;2023-05-10T14:06:18;27.30;77.90
21035;DHT22;10676;50.848;3.272;2023-05-10T14:08:44;27.20;77.10
21035;DHT22;10676;50.848;3.272;2023-05-10T14:11:10;27.10;76.50
21035;DHT22;10676;50.848;3.272;2023-05-10T14:13:35;26.90;77.10
21035;DHT22;10676;50.848;3.272;2023-05-10T14:16:02;26.70;78.90
21035;DHT22;10676;50.848;3.272;2023-05-10T14:18:27;26.60;79.20
21035;DHT22;10676;50.848;3.272;2023-05-10T14:20:53;26.40;77.40
21035;DHT22;10676;50.848;3.272;2023-05-10T14:23:19;26.10;77.20
21035;DHT22;10676;50.848;3.272;2023-05-10T14:25:52;25.80;77.90
21035;DHT22;10676;50.848;3.272;2023-05-10T14:28:18;25.50;78.30
21035;DHT22;10676;50.848;3.272;2023-05-10T14:30:51;25.20;79.20
21035;DHT22;10676;50.848;3.272;2023-05-10T14:33:17;24.90;77.80
21035;DHT22;10676;50.848;3.272;2023-05-10T14:35:43;24.80;77.80
21035;DHT22;10676;50.848;3.272;2023-05-10T14:38:09;24.60;79.20
21035;DHT22;10676;50.848;3.272;2023-05-10T14:40:41;24.40;80.70
21035;DHT22;10676;50.848;3.272;2023-05-10T14:43:08;24.40;79.80
21035;DHT22;10676;50.848;3.272;2023-05-10T14:45:33;24.30;80.70
21035;DHT22;10676;50.848;3.272;2023-05-10T14:47:59;24.30;81.30
21035;DHT22;10676;50.848;3.272;2023-05-10T14:50:25;24.30;82.50
21035;DHT22;10676;50.848;3.272;2023-05-10T14:52:51;24.30;82.80
21035;DHT22;10676;50.848;3.272;2023-05-10T14:55:17;24.30;83.00
21035;DHT22;10676;50.848;3.272;2023-05-10T14:57:42;24.30;81.80
21035;DHT22;10676;50.848;3.272;2023-05-10T15:00:09;24.30;80.30
21035;DHT22;10676;50.848;3.272;2023-05-10T15:02:35;24.20;78.70
21035;DHT22;10676;50.848;3.272;2023-05-10T15:05:02;23.90;80.70
21035;DHT22;10676;50.848;3.272;2023-05-10T15:07:27;23.80;81.20
21035;DHT22;10676;50.848;3.272;2023-05-10T15:09:53;23.80;81.60
21035;DHT22;10676;50.848;3.272;2023-05-10T15:12:19;23.80;82.10
21035;DHT22;10676;50.848;3.272;2023-05-10T15:14:46;23.90;81.50
21035;DHT22;10676;50.848;3.272;2023-05-10T15:17:12;24.10;79.10
21035;DHT22;10676;50.848;3.272;2023-05-10T15:19:38;24.30;79.60
21035;DHT22;10676;50.848;3.272;2023-05-10T15:22:04;24.60;78.70
21035;DHT22;10676;50.848;3.272;2023-05-10T15:24:31;24.90;78.90
21035;DHT22;10676;50.848;3.272;2023-05-10T15:26:57;25.40;77.50
21035;DHT22;10676;50.848;3.272;2023-05-10T15:29:22;25.70;76.20
21035;DHT22;10676;50.848;3.272;2023-05-10T15:31:49;25.90;75.70
21035;DHT22;10676;50.848;3.272;2023-05-10T15:34:16;25.80;76.50
21035;DHT22;10676;50.848;3.272;2023-05-10T15:36:43;25.50;78.20
21035;DHT22;10676;50.848;3.272;2023-05-10T15:39:08;25.30;79.40
21035;DHT22;10676;50.848;3.272;2023-05-10T15:41:37;25.00;79.60
21035;DHT22;10676;50.848;3.272;2023-05-10T15:44:03;24.60;80.50
21035;DHT22;10676;50.848;3.272;2023-05-10T15:46:29;24.30;81.50
21035;DHT22;10676;50.848;3.272;2023-05-10T15:48:56;24.00;82.10
21035;DHT22;10676;50.848;3.272;2023-05-10T15:51:22;23.70;81.90
21035;DHT22;10676;50.848;3.272;2023-05-10T15:53:48;23.60;82.60
21035;DHT22;10676;50.848;3.272;2023-05-10T15:56:14;23.50;83.10
21035;DHT22;10676;50.848;3.272;2023-05-10T15:58:40;23.50;84.00
21035;DHT22;10676;50.848;3.272;2023-05-10T16:01:09;23.70;84.30
21035;DHT22;10676;50.848;3.272;2023-05-10T16:03:36;24.00;84.70